createdAt,value
2024-03-16T00:01:24.219Z,58.63
2024-03-16T00:04:09.305Z,58.30
2024-03-16T00:06:54.271Z,58.62
2024-03-16T00:09:39.328Z,59.85
2024-03-16T00:12:24.299Z,58.99
2024-03-16T00:15:09.352Z,59.12
2024-03-16T00:17:54.354Z,58.95
2024-03-16T00:20:39.597Z,59.08
2024-03-16T00:23:24.605Z,58.96
2024-03-16T00:26:09.859Z,60.66
2024-03-16T00:28:55.161Z,60.70
2024-03-16T00:31:40.227Z,59.61
2024-03-16T00:34:25.313Z,58.96
2024-03-16T00:37:10.274Z,59.00
2024-03-16T00:39:55.485Z,59.18
2024-03-16T00:42:40.450Z,59.10
2024-03-16T00:45:25.700Z,60.64
2024-03-16T00:48:10.792Z,60.80
2024-03-16T00:50:55.934Z,61.38
2024-03-16T00:53:41.109Z,60.94
2024-03-16T00:56:26.173Z,62.39
2024-03-16T00:59:11.444Z,62.29
2024-03-16T01:01:56.669Z,62.56
2024-03-16T01:04:41.736Z,61.94
2024-03-16T01:07:26.803Z,61.12
2024-03-16T01:10:11.870Z,61.49
2024-03-16T01:12:57.231Z,61.70
2024-03-16T01:15:42.172Z,60.47
2024-03-16T01:18:27.416Z,60.60
2024-03-16T01:21:12.506Z,61.28
2024-03-16T01:23:57.753Z,60.57
2024-03-16T01:26:42.944Z,61.65
2024-03-16T01:29:28.063Z,60.79
2024-03-16T01:32:13.126Z,61.28
2024-03-16T01:34:58.103Z,62.10
2024-03-16T01:37:43.334Z,62.92
2024-03-16T01:40:28.456Z,63.54
2024-03-16T01:43:13.825Z,64.31
2024-03-16T01:45:58.994Z,64.00
2024-03-16T01:48:43.978Z,63.79
2024-03-16T01:51:29.212Z,63.86
2024-03-16T01:54:14.123Z,64.28
2024-03-16T01:56:59.272Z,64.00
2024-03-16T01:59:44.330Z,64.12
2024-03-16T02:02:29.526Z,64.21
2024-03-16T02:05:14.507Z,64.78
2024-03-16T02:07:59.546Z,64.35
2024-03-16T02:10:44.824Z,65.47
2024-03-16T02:13:29.809Z,65.22
2024-03-16T02:16:14.930Z,64.36
2024-03-16T02:19:00.036Z,63.83
2024-03-16T02:21:45.084Z,63.81
2024-03-16T02:24:30.101Z,64.00
2024-03-16T02:27:15.329Z,64.19
2024-03-16T02:30:00.409Z,65.28
2024-03-16T02:32:45.476Z,65.11
2024-03-16T02:35:30.559Z,64.95
2024-03-16T02:38:15.590Z,64.78
2024-03-16T02:41:00.778Z,64.09
2024-03-16T02:43:45.821Z,64.32
2024-03-16T02:46:30.953Z,63.61
2024-03-16T02:49:16.102Z,62.94
2024-03-16T02:52:01.300Z,62.62
2024-03-16T02:54:46.490Z,61.83
2024-03-16T02:57:31.436Z,63.01
2024-03-16T03:00:16.538Z,62.17
2024-03-16T03:03:01.472Z,62.31
2024-03-16T03:05:46.596Z,63.46
2024-03-16T03:08:31.811Z,63.67
2024-03-16T03:11:16.983Z,63.03
2024-03-16T03:14:02.160Z,63.30
2024-03-16T03:16:47.241Z,64.19
2024-03-16T03:19:32.478Z,63.52
2024-03-16T03:22:17.576Z,64.51
2024-03-16T03:25:02.937Z,64.76
2024-03-16T03:27:47.958Z,64.65
2024-03-16T03:30:33.145Z,64.87
2024-03-16T03:33:18.345Z,64.69
2024-03-16T03:36:03.336Z,65.32
2024-03-16T03:38:48.526Z,64.60
2024-03-16T03:41:33.549Z,64.78
2024-03-16T03:44:18.864Z,66.36
2024-03-16T03:47:03.962Z,68.14
2024-03-16T03:49:49.002Z,68.50
2024-03-16T03:52:34.172Z,69.05
2024-03-16T03:55:19.219Z,68.61
2024-03-16T03:58:04.653Z,68.48
2024-03-16T04:00:49.653Z,68.53
2024-03-16T04:03:34.796Z,68.86
2024-03-16T04:06:19.871Z,67.47
2024-03-16T04:09:04.967Z,67.75
2024-03-16T04:11:50.176Z,65.97
2024-03-16T04:14:35.248Z,66.05
2024-03-16T04:17:20.320Z,66.22
2024-03-16T04:20:05.449Z,66.32
2024-03-16T04:22:50.590Z,66.53
2024-03-16T04:25:35.781Z,65.38
2024-03-16T04:28:20.967Z,66.02
2024-03-16T04:31:06.329Z,66.51
2024-03-16T04:33:51.153Z,66.81
2024-03-16T04:36:36.430Z,67.34
2024-03-16T04:39:21.459Z,67.95
2024-03-16T04:42:06.739Z,67.56
2024-03-16T04:44:51.792Z,67.41
2024-03-16T04:47:37.050Z,68.90
2024-03-16T04:50:22.132Z,69.72
2024-03-16T04:53:07.170Z,69.76
2024-03-16T04:55:52.460Z,69.18
2024-03-16T04:58:37.594Z,70.46
2024-03-16T05:01:22.835Z,69.98
2024-03-16T05:04:07.745Z,69.20
2024-03-16T05:06:58.651Z,68.92
2024-03-16T05:09:43.667Z,69.47
2024-03-16T05:12:28.899Z,69.28
2024-03-16T05:15:13.957Z,68.54
2024-03-16T05:17:59.261Z,68.26
2024-03-16T05:20:44.210Z,67.57
2024-03-16T05:23:29.438Z,66.27
2024-03-16T05:26:14.436Z,66.55
2024-03-16T05:28:59.579Z,66.99
2024-03-16T05:31:44.722Z,66.77
2024-03-16T05:34:29.699Z,66.81
2024-03-16T05:37:15.100Z,66.66
2024-03-16T05:40:00.271Z,66.55
2024-03-16T05:42:45.301Z,66.62
2024-03-16T05:45:30.364Z,66.09
2024-03-16T05:48:15.539Z,66.63
2024-03-16T05:51:00.682Z,66.92
2024-03-16T05:53:45.804Z,66.70
2024-03-16T05:56:30.971Z,68.02
2024-03-16T05:59:15.929Z,66.50
2024-03-16T06:02:01.120Z,66.51
2024-03-16T06:04:46.177Z,66.90
2024-03-16T06:07:31.264Z,67.02
2024-03-16T06:10:16.547Z,65.73
2024-03-16T06:13:01.579Z,67.10
2024-03-16T06:15:46.753Z,67.63
2024-03-16T06:18:31.905Z,68.06
2024-03-16T06:21:17.004Z,67.25
2024-03-16T06:24:02.106Z,67.90
2024-03-16T06:26:47.384Z,67.69
2024-03-16T06:29:32.483Z,66.73
2024-03-16T06:32:17.543Z,66.21
2024-03-16T06:35:02.745Z,66.51
2024-03-16T06:37:47.844Z,66.07
2024-03-16T06:40:32.929Z,66.83
2024-03-16T06:43:18.054Z,67.04
2024-03-16T06:46:03.221Z,67.36
2024-03-16T06:48:48.365Z,68.29
2024-03-16T06:51:33.652Z,68.16
2024-03-16T06:54:18.681Z,68.46
2024-03-16T06:57:03.742Z,68.11
2024-03-16T06:59:48.958Z,68.07
2024-03-16T07:02:34.055Z,67.23
2024-03-16T07:05:19.250Z,67.94
2024-03-16T07:08:04.268Z,67.59
2024-03-16T07:10:49.422Z,68.06
2024-03-16T07:13:34.385Z,67.58
2024-03-16T07:16:19.547Z,65.08
2024-03-16T07:19:04.729Z,61.89
2024-03-16T07:21:49.710Z,57.33
2024-03-16T07:24:34.912Z,51.97
2024-03-16T07:27:19.736Z,46.05
2024-03-16T07:30:04.901Z,43.24
2024-03-16T07:32:50.004Z,39.20
2024-03-16T07:35:34.942Z,37.10
2024-03-16T07:38:20.040Z,38.16
2024-03-16T07:41:05.074Z,42.27
2024-03-16T07:43:50.294Z,44.33
2024-03-16T07:46:35.396Z,50.46
2024-03-16T07:49:20.790Z,55.76
2024-03-16T07:52:05.926Z,59.42
2024-03-16T07:54:50.991Z,58.56
2024-03-16T07:57:36.247Z,60.34
2024-03-16T08:00:21.154Z,61.33
2024-03-16T08:03:06.409Z,64.62
2024-03-16T08:05:51.571Z,67.96
2024-03-16T08:08:36.800Z,66.48
2024-03-16T08:11:21.817Z,68.48
2024-03-16T08:14:06.960Z,65.93
2024-03-16T08:16:52.061Z,64.58
2024-03-16T08:19:37.124Z,63.82
2024-03-16T08:22:22.299Z,64.57
2024-03-16T08:25:07.319Z,64.19
2024-03-16T08:27:52.352Z,66.28
2024-03-16T08:30:37.359Z,65.88
2024-03-16T08:33:22.533Z,64.89
2024-03-16T08:36:07.461Z,61.79
2024-03-16T08:38:52.528Z,61.24
2024-03-16T08:41:37.817Z,58.35
2024-03-16T08:44:22.695Z,59.38
2024-03-16T08:47:07.847Z,61.81
2024-03-16T08:49:52.800Z,60.35
2024-03-16T08:52:38.974Z,61.59
2024-03-16T08:55:24.444Z,59.62
2024-03-16T08:58:09.524Z,58.16
2024-03-16T09:00:55.022Z,60.86
2024-03-16T09:03:39.746Z,61.53
2024-03-16T09:06:24.876Z,64.05
2024-03-16T09:09:09.961Z,61.62
2024-03-16T09:11:55.292Z,58.21
2024-03-16T09:14:40.371Z,61.69
2024-03-16T09:17:25.463Z,59.73
2024-03-16T09:20:10.892Z,61.10
2024-03-16T09:22:55.784Z,61.06
2024-03-16T09:25:40.985Z,62.46
2024-03-16T09:28:26.107Z,62.06
2024-03-16T09:31:11.025Z,59.96
2024-03-16T09:33:56.178Z,58.35
2024-03-16T09:36:41.215Z,64.63
2024-03-16T09:39:26.318Z,64.00
2024-03-16T09:42:11.293Z,60.86
